Time;durP1;ratioP1;P1;durP2;ratioP2;P2;SDS_P1;SDS_P2;PMS_P1;PMS_P2;Temp;Humidity;BMP_temperature;BMP_pressure;BME280_temperature;BME280_humidity;BME280_pressure;Samples;Min_cycle;Max_cycle;Signal;HPM_P1;HPM_P2
2022/07/10 00:01:07;;;;;;;6.50;1.30;;;14.30;99.90;;;;;;5053119;28;20231;-58
2022/07/10 00:03:36;;;;;;;4.17;1.17;;;14.40;99.90;;;;;;5053643;28;20707;-58
2022/07/10 00:06:04;;;;;;;2.83;0.87;;;14.30;99.90;;;;;;5053958;28;20212;-57
2022/07/10 00:08:32;;;;;;;1.53;0.70;;;14.30;99.90;;;;;;5052010;28;20322;-57
2022/07/10 00:11:00;;;;;;;5.03;1.10;;;14.20;99.90;;;;;;5053546;28;20232;-58
2022/07/10 00:13:30;;;;;;;4.50;0.70;;;14.20;99.90;;;;;;5054591;28;20235;-58
2022/07/10 00:15:58;;;;;;;3.67;1.10;;;14.10;99.90;;;;;;5053366;28;20227;-58
2022/07/10 00:18:26;;;;;;;2.70;1.00;;;14.10;99.90;;;;;;5052141;28;20243;-58
2022/07/10 00:20:54;;;;;;;2.83;1.10;;;14.10;99.90;;;;;;5053155;28;20216;-57
2022/07/10 00:23:22;;;;;;;4.77;0.90;;;14.10;99.90;;;;;;5053301;28;20224;-58
2022/07/10 00:25:51;;;;;;;2.33;0.80;;;14.10;99.90;;;;;;5053377;28;20302;-58
2022/07/10 00:28:19;;;;;;;3.53;0.80;;;14.10;99.90;;;;;;5052156;28;20259;-58
2022/07/10 00:30:49;;;;;;;1.73;0.87;;;14.10;99.90;;;;;;5052641;28;20231;-58
2022/07/10 00:33:17;;;;;;;5.67;0.90;;;14.00;99.90;;;;;;5054461;28;20224;-58
2022/07/10 00:35:45;;;;;;;3.20;0.70;;;14.00;99.90;;;;;;5053391;28;20228;-58
2022/07/10 00:38:14;;;;;;;7.03;1.20;;;14.10;99.90;;;;;;5051725;28;20227;-57
2022/07/10 00:40:42;;;;;;;4.10;0.80;;;14.10;99.90;;;;;;5053059;28;20224;-58
2022/07/10 00:43:10;;;;;;;6.03;1.17;;;14.10;99.90;;;;;;5053384;28;20247;-57
2022/07/10 00:45:38;;;;;;;4.13;1.37;;;14.00;99.90;;;;;;5033147;28;20639;-57
2022/07/10 00:48:09;;;;;;;4.87;1.20;;;14.00;99.90;;;;;;5043602;28;20216;-57
2022/07/10 00:50:38;;;;;;;3.97;1.07;;;13.90;99.90;;;;;;5045167;28;20227;-57
2022/07/10 00:53:07;;;;;;;3.63;0.70;;;14.00;99.90;;;;;;5052671;28;20232;-58
2022/07/10 00:55:37;;;;;;;3.40;1.00;;;14.00;99.90;;;;;;5052522;28;20231;-58
2022/07/10 00:58:08;;;;;;;5.90;1.10;;;14.00;99.90;;;;;;5051865;28;20595;-58
2022/07/10 01:00:37;;;;;;;4.90;1.10;;;14.10;99.90;;;;;;5051997;28;20227;-57
2022/07/10 01:03:06;;;;;;;6.40;1.00;;;14.00;99.90;;;;;;5045367;28;20577;-57
2022/07/10 01:05:35;;;;;;;4.30;1.07;;;14.00;99.90;;;;;;5052408;28;20216;-58
2022/07/10 01:08:04;;;;;;;4.20;0.87;;;13.90;99.90;;;;;;5051597;28;20220;-58
2022/07/10 01:10:32;;;;;;;2.50;0.73;;;13.90;99.90;;;;;;5052184;28;20231;-58
2022/07/10 01:13:02;;;;;;;3.90;0.90;;;14.00;99.90;;;;;;5054343;28;20226;-58
2022/07/10 01:15:30;;;;;;;4.50;1.00;;;14.00;99.90;;;;;;5052444;28;20223;-58
2022/07/10 01:17:58;;;;;;;4.53;1.00;;;14.00;99.90;;;;;;5051440;28;20679;-58
2022/07/10 01:20:32;;;;;;;4.63;0.90;;;14.00;99.90;;;;;;5052371;28;20286;-57
2022/07/10 01:23:02;;;;;;;8.60;1.20;;;14.10;99.90;;;;;;5046050;28;20227;-58
2022/07/10 01:25:30;;;;;;;7.23;1.07;;;14.00;99.90;;;;;;5052564;28;20242;-58
2022/07/10 01:27:58;;;;;;;5.17;1.00;;;14.00;99.90;;;;;;5051243;28;20307;-58
2022/07/10 01:30:26;;;;;;;4.77;0.90;;;13.90;99.90;;;;;;5051537;28;20248;-58
2022/07/10 01:32:55;;;;;;;4.53;1.40;;;14.00;99.90;;;;;;5052537;28;20211;-58
2022/07/10 01:35:23;;;;;;;3.83;1.03;;;13.90;99.90;;;;;;5052357;28;20219;-58
2022/07/10 01:37:51;;;;;;;5.33;1.20;;;13.80;99.90;;;;;;5050775;28;20223;-58
2022/07/10 01:40:21;;;;;;;5.17;1.50;;;13.80;99.90;;;;;;5052581;28;20224;-57
2022/07/10 01:42:51;;;;;;;4.67;1.13;;;13.70;99.90;;;;;;5054183;28;20285;-57
2022/07/10 01:45:25;;;;;;;4.93;1.23;;;13.60;99.90;;;;;;5052142;28;20250;-58
2022/07/10 01:47:53;;;;;;;4.27;1.60;;;13.60;99.90;;;;;;5051085;28;20251;-57
2022/07/10 01:50:21;;;;;;;5.33;1.30;;;13.60;99.90;;;;;;5051827;28;20224;-58
2022/07/10 01:52:50;;;;;;;8.30;1.80;;;13.60;99.90;;;;;;5051836;28;20228;-58
2022/07/10 01:55:18;;;;;;;5.07;1.30;;;13.60;99.90;;;;;;5051985;28;20262;-58
2022/07/10 01:57:47;;;;;;;4.23;1.20;;;13.60;99.90;;;;;;5051011;28;20699;-57
2022/07/10 02:00:16;;;;;;;4.90;1.27;;;13.60;99.90;;;;;;5051371;28;20227;-57
2022/07/10 02:04:40;;;;;;;7.00;1.87;;;13.70;99.90;;;;;;5052019;28;20231;-57
2022/07/10 02:05:32;;;;;;;6.37;1.03;;;13.70;99.90;;;;;;5051996;28;20232;-58
2022/07/10 02:08:00;;;;;;;4.83;1.13;;;13.70;99.90;;;;;;5050577;28;20216;-58
2022/07/10 02:10:28;;;;;;;6.73;1.47;;;13.70;99.90;;;;;;5051797;28;20232;-58
2022/07/10 02:12:58;;;;;;;6.53;1.53;;;13.70;99.90;;;;;;5054240;28;20691;-57
2022/07/10 02:15:26;;;;;;;5.67;1.50;;;13.70;99.90;;;;;;5052136;28;20332;-58
2022/07/10 02:17:54;;;;;;;3.37;1.37;;;13.70;99.90;;;;;;5050898;28;20231;-58
2022/07/10 02:20:22;;;;;;;3.97;1.10;;;13.70;99.90;;;;;;5052106;28;20224;-58
2022/07/10 02:22:50;;;;;;;7.30;1.33;;;13.80;99.90;;;;;;5051678;28;20314;-58
2022/07/10 02:25:18;;;;;;;4.00;1.10;;;13.80;99.90;;;;;;5052133;28;20261;-58
2022/07/10 02:27:46;;;;;;;5.03;1.50;;;13.80;99.90;;;;;;5050510;28;20318;-58
2022/07/10 02:30:16;;;;;;;4.70;1.50;;;13.80;99.90;;;;;;5051471;28;20227;-57
2022/07/10 02:32:44;;;;;;;6.87;1.50;;;13.80;99.90;;;;;;5048036;28;20235;-58
2022/07/10 02:35:12;;;;;;;4.23;1.20;;;13.80;99.90;;;;;;5050333;28;20220;-58
2022/07/10 02:37:44;;;;;;;6.07;1.40;;;13.80;99.90;;;;;;5054185;28;20246;-57
2022/07/10 02:40:13;;;;;;;4.97;1.27;;;13.80;99.90;;;;;;5055274;28;20283;-57
2022/07/10 02:42:41;;;;;;;6.13;1.20;;;13.70;99.90;;;;;;5055057;28;20285;-57
2022/07/10 02:45:10;;;;;;;4.30;1.37;;;13.70;99.90;;;;;;5055276;28;20228;-58
2022/07/10 02:47:39;;;;;;;3.37;1.37;;;13.70;99.90;;;;;;5054012;28;20731;-57
2022/07/10 02:50:09;;;;;;;5.43;1.30;;;13.70;99.90;;;;;;5055332;28;20716;-58
2022/07/10 02:52:37;;;;;;;4.57;1.37;;;13.70;99.90;;;;;;5054783;28;20282;-57
2022/07/10 02:55:06;;;;;;;5.63;1.50;;;13.70;99.90;;;;;;5055285;28;20216;-58
2022/07/10 02:57:34;;;;;;;5.13;1.57;;;13.70;99.90;;;;;;5053317;28;20235;-57
2022/07/10 03:00:03;;;;;;;5.47;1.53;;;13.70;99.90;;;;;;5055001;28;20226;-58
2022/07/10 03:02:32;;;;;;;5.43;1.40;;;13.70;99.90;;;;;;5054653;28;20285;-58
2022/07/10 03:05:01;;;;;;;5.53;1.80;;;13.70;99.90;;;;;;5054713;28;20224;-57
2022/07/10 03:07:29;;;;;;;7.10;1.73;;;13.70;99.90;;;;;;5053237;28;20228;-58
2022/07/10 03:09:57;;;;;;;5.63;1.50;;;13.70;99.90;;;;;;5054710;28;20235;-57
2022/07/10 03:12:25;;;;;;;6.10;1.70;;;13.60;99.90;;;;;;5056706;28;20231;-57
2022/07/10 03:14:53;;;;;;;10.00;1.70;;;13.60;99.90;;;;;;5054285;28;20220;-58
2022/07/10 03:17:22;;;;;;;5.43;1.83;;;13.50;99.90;;;;;;5053298;28;20246;-57
2022/07/10 03:19:50;;;;;;;5.40;1.80;;;13.40;99.90;;;;;;5053741;28;20764;-57
2022/07/10 03:22:19;;;;;;;6.53;1.97;;;13.40;99.90;;;;;;5054620;28;20229;-57
2022/07/10 03:24:48;;;;;;;10.93;2.30;;;13.40;99.90;;;;;;5053883;28;20690;-58
2022/07/10 03:27:17;;;;;;;10.53;2.20;;;13.40;99.90;;;;;;5053089;28;20245;-58
2022/07/10 03:29:46;;;;;;;6.43;2.27;;;13.30;99.90;;;;;;5050938;28;20217;-58
2022/07/10 03:32:14;;;;;;;7.53;1.83;;;13.30;99.90;;;;;;5049118;28;20256;-58
2022/07/10 03:34:42;;;;;;;7.17;1.77;;;13.20;99.90;;;;;;5052188;28;20234;-57
2022/07/10 03:37:10;;;;;;;9.13;2.53;;;13.20;99.90;;;;;;5053249;28;20219;-58
2022/07/10 03:39:40;;;;;;;8.20;2.17;;;13.20;99.90;;;;;;5046053;28;20273;-57
2022/07/10 03:42:08;;;;;;;5.70;2.10;;;13.30;99.90;;;;;;5055204;28;20230;-58
2022/07/10 03:44:36;;;;;;;5.53;1.77;;;13.30;99.90;;;;;;5054001;28;20763;-57
2022/07/10 03:47:06;;;;;;;7.47;1.90;;;13.30;99.90;;;;;;5053874;28;20321;-58
2022/07/10 03:49:34;;;;;;;5.40;1.83;;;13.30;99.90;;;;;;5052476;28;20234;-57
2022/07/10 03:52:03;;;;;;;5.90;1.93;;;13.30;99.90;;;;;;5053854;28;20228;-58
2022/07/10 03:54:32;;;;;;;9.70;2.10;;;13.30;99.90;;;;;;5053168;28;20231;-58
2022/07/10 03:59:47;;;;;;;10.00;2.47;;;13.40;99.90;;;;;;5051147;28;20235;-58
2022/07/10 04:02:15;;;;;;;8.57;2.17;;;13.40;99.90;;;;;;5052941;28;20227;-58
2022/07/10 04:04:43;;;;;;;13.93;3.37;;;13.40;99.90;;;;;;5053963;28;20306;-58
2022/07/10 04:07:12;;;;;;;10.37;2.60;;;13.40;99.90;;;;;;5052689;28;20629;-57
2022/07/10 04:09:41;;;;;;;8.83;1.93;;;13.40;99.90;;;;;;5053415;28;20231;-58
2022/07/10 04:12:10;;;;;;;7.77;2.07;;;13.40;99.90;;;;;;5054765;28;20250;-58
2022/07/10 04:14:39;;;;;;;8.60;1.87;;;13.40;99.90;;;;;;5051098;28;20231;-58
2022/07/10 04:17:08;;;;;;;7.83;2.23;;;13.40;99.90;;;;;;5052119;28;20579;-58
2022/07/10 04:19:36;;;;;;;7.43;2.17;;;13.50;99.90;;;;;;5044974;28;20238;-58
2022/07/10 04:22:05;;;;;;;7.03;2.17;;;13.60;99.90;;;;;;5053540;28;20215;-58
2022/07/10 04:24:33;;;;;;;7.47;2.00;;;13.60;99.90;;;;;;5042883;28;20215;-58
2022/07/10 04:27:01;;;;;;;8.97;2.30;;;13.60;99.90;;;;;;5053029;28;20259;-59
2022/07/10 04:29:31;;;;;;;7.07;2.00;;;13.70;99.90;;;;;;5053778;28;20243;-58
2022/07/10 04:31:59;;;;;;;10.93;2.67;;;13.80;99.90;;;;;;5053110;28;20243;-59
2022/07/10 04:34:27;;;;;;;7.00;2.33;;;14.00;99.90;;;;;;5053103;28;20306;-58
2022/07/10 04:36:55;;;;;;;9.73;2.10;;;14.10;99.90;;;;;;5052426;28;20282;-58
2022/07/10 04:39:23;;;;;;;7.33;2.20;;;14.30;99.90;;;;;;5051923;28;20231;-58
2022/07/10 04:41:52;;;;;;;9.97;2.77;;;14.30;99.90;;;;;;5055059;28;20323;-58
2022/07/10 04:44:20;;;;;;;8.00;2.33;;;14.50;99.90;;;;;;5052950;28;20300;-58
2022/07/10 04:46:50;;;;;;;8.90;2.33;;;14.60;99.90;;;;;;5052565;28;20235;-58
2022/07/10 04:49:18;;;;;;;9.37;2.40;;;14.60;99.90;;;;;;5051947;28;20633;-58
2022/07/10 04:51:46;;;;;;;9.87;2.30;;;14.60;99.90;;;;;;5052840;28;20223;-59
2022/07/10 04:54:14;;;;;;;8.27;2.13;;;14.70;99.90;;;;;;5053082;28;20560;-58
2022/07/10 04:56:43;;;;;;;12.13;2.47;;;14.90;99.90;;;;;;5052714;28;20231;-59
2022/07/10 04:59:11;;;;;;;8.67;2.10;;;15.10;99.90;;;;;;5053742;28;20236;-58
2022/07/10 05:01:39;;;;;;;10.90;2.40;;;15.20;99.90;;;;;;5052255;28;20231;-59
2022/07/10 05:04:09;;;;;;;8.37;1.83;;;15.30;99.90;;;;;;5053840;28;20238;-58
2022/07/10 05:06:37;;;;;;;7.90;1.97;;;15.40;99.90;;;;;;5052813;28;20223;-59
2022/07/10 05:09:05;;;;;;;13.63;2.93;;;15.70;99.90;;;;;;5054070;28;20250;-58
2022/07/10 05:11:33;;;;;;;8.20;2.60;;;15.60;99.90;;;;;;5054551;28;20215;-58
2022/07/10 05:14:01;;;;;;;10.50;2.20;;;15.60;99.90;;;;;;5052035;28;20263;-58
2022/07/10 05:16:30;;;;;;;10.50;2.70;;;15.40;99.90;;;;;;5052169;28;20272;-58
2022/07/10 05:18:58;;;;;;;12.43;2.33;;;15.30;99.90;;;;;;5050456;28;20260;-59
2022/07/10 05:21:27;;;;;;;9.10;2.23;;;15.30;99.90;;;;;;5052352;28;20236;-59
2022/07/10 05:23:55;;;;;;;6.53;2.30;;;15.30;99.90;;;;;;5052605;28;20226;-59
2022/07/10 05:26:23;;;;;;;11.33;2.50;;;15.30;99.90;;;;;;5052112;28;20231;-58
2022/07/10 05:28:52;;;;;;;10.00;2.37;;;15.40;99.90;;;;;;5048730;28;20219;-59
2022/07/10 05:31:20;;;;;;;10.97;2.33;;;15.60;99.90;;;;;;5051945;28;20260;-59
2022/07/10 05:33:48;;;;;;;14.10;2.30;;;15.80;99.90;;;;;;5052558;28;20224;-59
2022/07/10 05:36:16;;;;;;;9.87;2.40;;;16.10;99.90;;;;;;5059585;28;20223;-58
2022/07/10 05:38:46;;;;;;;10.77;2.87;;;16.40;99.90;;;;;;5053126;28;20246;-59
2022/07/10 05:41:14;;;;;;;7.73;2.10;;;16.60;99.90;;;;;;5053205;28;20224;-59
2022/07/10 05:43:42;;;;;;;9.47;3.00;;;16.80;99.90;;;;;;5052326;28;20699;-59
2022/07/10 05:46:10;;;;;;;9.70;2.00;;;17.10;99.90;;;;;;5052270;28;20236;-59
2022/07/10 05:48:39;;;;;;;8.07;2.20;;;17.30;99.90;;;;;;5045531;28;20246;-59
2022/07/10 05:51:08;;;;;;;12.23;2.80;;;17.50;99.90;;;;;;5052178;28;20224;-59
2022/07/10 05:53:57;;;;;;;11.73;2.37;;;17.50;99.90;;;;;;5052159;28;20282;-59
2022/07/10 05:56:25;;;;;;;7.90;2.23;;;17.60;99.90;;;;;;5052165;28;20230;-59
2022/07/10 05:58:55;;;;;;;8.93;1.83;;;17.80;99.90;;;;;;5051074;28;20721;-59
2022/07/10 06:01:23;;;;;;;12.17;2.13;;;17.90;99.90;;;;;;5051464;28;20232;-60
2022/07/10 06:03:51;;;;;;;9.00;2.27;;;17.60;99.90;;;;;;5051589;28;20672;-59
2022/07/10 06:06:20;;;;;;;6.23;2.40;;;17.40;99.90;;;;;;5051530;28;20228;-59
2022/07/10 06:08:48;;;;;;;9.50;2.33;;;17.40;99.90;;;;;;5051849;28;20239;-59
2022/07/10 06:11:18;;;;;;;9.17;2.00;;;17.50;99.90;;;;;;5054567;28;20221;-59
2022/07/10 06:13:46;;;;;;;9.37;2.27;;;17.60;99.90;;;;;;5055164;28;20263;-59
2022/07/10 06:16:14;;;;;;;14.30;2.57;;;17.30;99.90;;;;;;5055429;28;20226;-59
2022/07/10 06:18:42;;;;;;;8.93;2.40;;;17.20;99.90;;;;;;5054316;28;20585;-59
2022/07/10 06:21:21;;;;;;;12.10;2.37;;;16.90;99.90;;;;;;5052820;28;20579;-59
2022/07/10 06:23:55;;;;;;;10.83;2.20;;;16.80;99.90;;;;;;5055608;28;20230;-59
2022/07/10 06:26:24;;;;;;;11.67;2.50;;;16.70;99.90;;;;;;5055201;28;20234;-59
2022/07/10 06:28:52;;;;;;;9.80;2.47;;;16.70;99.90;;;;;;5055396;28;20226;-59
2022/07/10 06:31:20;;;;;;;8.03;2.00;;;16.90;99.90;;;;;;5054894;28;20243;-59
2022/07/10 06:33:48;;;;;;;8.97;2.00;;;16.90;99.90;;;;;;5055266;28;20707;-59
2022/07/10 06:36:17;;;;;;;11.57;2.70;;;17.00;99.90;;;;;;5052711;28;20216;-59
2022/07/10 06:38:51;;;;;;;11.10;2.57;;;17.30;99.90;;;;;;5052499;28;20679;-59
2022/07/10 06:41:20;;;;;;;12.40;2.60;;;17.60;99.90;;;;;;5056899;28;20306;-60
2022/07/10 06:43:49;;;;;;;12.50;2.53;;;17.90;99.90;;;;;;5054785;28;20231;-59
2022/07/10 06:46:17;;;;;;;8.37;2.23;;;18.30;99.90;;;;;;5051590;28;20248;-59
2022/07/10 06:48:45;;;;;;;8.30;1.90;;;18.30;99.90;;;;;;5054183;28;20233;-59
2022/07/10 06:51:13;;;;;;;8.53;1.93;;;18.40;99.90;;;;;;5053591;28;20748;-60
2022/07/10 06:53:46;;;;;;;6.87;1.80;;;18.50;99.90;;;;;;5054662;28;20229;-59
2022/07/10 06:56:16;;;;;;;10.43;1.87;;;18.60;99.90;;;;;;5054614;28;20241;-59
2022/07/10 06:58:44;;;;;;;10.07;2.43;;;18.60;99.90;;;;;;5053009;28;20589;-60
2022/07/10 07:01:14;;;;;;;13.17;2.40;;;18.30;99.90;;;;;;5054624;28;20217;-59
2022/07/10 07:03:42;;;;;;;7.67;1.80;;;18.20;99.90;;;;;;5054840;28;20228;-59
2022/07/10 07:06:11;;;;;;;12.23;2.30;;;17.90;99.90;;;;;;5048224;28;20222;-59
2022/07/10 07:08:39;;;;;;;10.13;2.37;;;17.70;99.90;;;;;;5047211;28;20258;-59
2022/07/10 07:11:08;;;;;;;9.27;2.07;;;17.60;99.90;;;;;;5055159;28;20229;-59
2022/07/10 07:13:36;;;;;;;11.07;2.50;;;17.70;99.90;;;;;;5054673;28;20336;-59
2022/07/10 07:16:06;;;;;;;5.83;2.40;;;17.80;99.90;;;;;;5053154;28;20221;-59
2022/07/10 07:18:47;;;;;;;9.77;2.40;;;17.90;99.90;;;;;;5053067;28;20225;-59
2022/07/10 07:24:00;;;;;;;10.33;1.93;;;18.40;99.90;;;;;;5054687;28;20233;-59
2022/07/10 07:26:28;;;;;;;8.00;1.90;;;18.80;99.90;;;;;;5054189;28;20233;-59
2022/07/10 07:28:57;;;;;;;8.97;2.03;;;19.50;99.90;;;;;;5053478;28;20566;-59
2022/07/10 07:31:25;;;;;;;5.00;1.70;;;19.90;99.90;;;;;;5054096;28;20243;-59
2022/07/10 07:33:54;;;;;;;9.50;2.40;;;19.90;99.90;;;;;;5053999;28;20226;-59
2022/07/10 07:36:23;;;;;;;21.67;2.70;;;19.50;99.90;;;;;;5054202;28;20632;-59
2022/07/10 07:38:52;;;;;;;10.87;3.07;;;19.10;99.90;;;;;;5052927;28;20586;-59
2022/07/10 07:41:20;;;;;;;9.70;2.07;;;19.10;99.90;;;;;;5054218;28;20266;-59
2022/07/10 07:43:49;;;;;;;7.63;1.77;;;19.30;99.90;;;;;;5054122;28;20679;-58
2022/07/10 07:46:17;;;;;;;12.70;2.40;;;19.20;99.90;;;;;;5052803;28;20246;-59
2022/07/10 07:48:46;;;;;;;8.03;2.03;;;19.60;99.90;;;;;;5052475;28;20245;-59
2022/07/10 07:51:15;;;;;;;10.20;2.20;;;19.50;99.90;;;;;;5053932;28;20241;-59
2022/07/10 07:53:43;;;;;;;10.23;2.43;;;19.50;99.90;;;;;;5053408;28;20234;-60
2022/07/10 07:56:12;;;;;;;9.97;2.00;;;18.90;99.90;;;;;;5055503;28;20235;-60
2022/07/10 07:58:40;;;;;;;6.20;1.73;;;19.00;99.90;;;;;;5052595;28;20225;-59
2022/07/10 08:01:09;;;;;;;6.23;1.40;;;19.30;99.90;;;;;;5053594;28;20318;-59
2022/07/10 08:03:37;;;;;;;5.50;1.73;;;19.80;99.90;;;;;;5053717;28;20231;-59
2022/07/10 08:06:26;;;;;;;8.77;1.87;;;19.80;99.90;;;;;;5053479;28;20342;-60
2022/07/10 08:08:54;;;;;;;7.43;1.90;;;20.00;99.90;;;;;;5055052;28;20230;-59
2022/07/10 08:11:23;;;;;;;7.00;1.73;;;20.40;99.90;;;;;;5053650;28;20621;-59
2022/07/10 08:13:51;;;;;;;6.33;1.50;;;20.30;99.90;;;;;;5053318;28;20222;-59
2022/07/10 08:16:19;;;;;;;8.37;1.83;;;20.40;99.90;;;;;;5053922;28;20231;-60
2022/07/10 08:18:47;;;;;;;6.00;1.60;;;20.60;99.90;;;;;;5052045;28;20223;-59
2022/07/10 08:21:16;;;;;;;4.93;1.60;;;20.40;99.90;;;;;;5053297;28;20258;-59
2022/07/10 08:23:45;;;;;;;5.73;1.50;;;20.70;99.90;;;;;;5053359;28;20220;-59
2022/07/10 08:26:13;;;;;;;6.83;1.67;;;20.90;99.90;;;;;;5053452;28;20240;-60
2022/07/10 08:28:41;;;;;;;8.20;1.90;;;20.60;99.90;;;;;;5054457;28;20578;-59
2022/07/10 08:31:10;;;;;;;9.63;2.00;;;20.10;99.90;;;;;;5052860;28;20251;-59
2022/07/10 08:33:43;;;;;;;6.53;2.10;;;19.90;99.90;;;;;;5052746;28;20253;-60
2022/07/10 08:36:11;;;;;;;8.30;1.70;;;20.40;99.90;;;;;;5053156;28;20224;-60
2022/07/10 08:39:01;;;;;;;8.60;1.83;;;21.20;99.90;;;;;;5050333;28;20232;-59
2022/07/10 08:41:33;;;;;;;8.47;1.90;;;21.20;99.90;;;;;;5053005;28;20242;-60
2022/07/10 08:44:01;;;;;;;9.70;2.00;;;21.10;99.90;;;;;;5051491;28;20220;-59
2022/07/10 08:46:32;;;;;;;11.00;1.93;;;21.20;99.90;;;;;;5052856;28;20650;-60
2022/07/10 08:49:02;;;;;;;8.00;1.80;;;21.30;99.90;;;;;;5050171;28;20219;-60
2022/07/10 08:51:37;;;;;;;9.17;1.90;;;20.40;99.90;;;;;;5052636;28;20255;-59
2022/07/10 08:54:09;;;;;;;7.10;1.73;;;20.50;99.90;;;;;;5041753;28;20238;-60
2022/07/10 08:56:38;;;;;;;8.57;2.07;;;20.50;99.90;;;;;;5036121;28;20639;-60
2022/07/10 08:59:08;;;;;;;8.53;1.77;;;20.30;99.90;;;;;;5036744;28;20688;-61
2022/07/10 09:01:36;;;;;;;6.50;1.70;;;20.80;99.90;;;;;;5038156;28;20231;-60
2022/07/10 09:04:05;;;;;;;10.20;1.93;;;21.30;99.90;;;;;;5043273;28;20599;-60
2022/07/10 09:06:33;;;;;;;5.00;1.50;;;21.70;99.90;;;;;;5045780;28;20227;-60
2022/07/10 09:09:04;;;;;;;7.13;1.60;;;22.20;99.90;;;;;;5044776;28;20304;-60
2022/07/10 09:11:34;;;;;;;5.90;1.60;;;21.60;99.90;;;;;;5046394;28;21559;-60
2022/07/10 09:14:04;;;;;;;9.37;1.93;;;21.00;99.90;;;;;;5043337;28;20807;-59
2022/07/10 09:16:34;;;;;;;6.47;1.70;;;21.10;99.90;;;;;;5044924;28;20686;-60
2022/07/10 09:19:20;;;;;;;6.90;1.40;;;21.50;99.90;;;;;;5042780;28;20324;-60
2022/07/10 09:21:50;;;;;;;7.07;1.80;;;21.10;99.90;;;;;;5046394;28;20242;-60
2022/07/10 09:24:19;;;;;;;7.03;1.70;;;21.10;99.90;;;;;;5034635;28;20215;-60
2022/07/10 09:27:03;;;;;;;6.93;1.67;;;21.40;99.90;;;;;;5036516;28;20308;-60
2022/07/10 09:29:32;;;;;;;7.20;2.10;;;21.70;99.90;;;;;;5037107;28;20299;-60
2022/07/10 09:32:01;;;;;;;4.90;1.63;;;22.20;99.90;;;;;;5036272;28;20234;-60
2022/07/10 09:34:40;;;;;;;6.93;2.10;;;22.60;99.90;;;;;;5032688;28;20267;-61
2022/07/10 09:37:22;;;;;;;4.23;1.37;;;22.60;99.90;;;;;;5033872;28;20368;-60
2022/07/10 09:39:58;;;;;;;7.03;1.40;;;22.20;99.90;;;;;;5046403;28;20879;-60
2022/07/10 09:42:34;;;;;;;5.63;1.40;;;22.50;99.90;;;;;;5043499;28;20289;-60
2022/07/10 09:45:16;;;;;;;6.13;1.80;;;22.90;99.90;;;;;;5046564;28;20274;-60
2022/07/10 09:47:47;;;;;;;8.17;2.10;;;22.60;99.90;;;;;;5039137;28;20298;-60
2022/07/10 09:50:24;;;;;;;7.33;1.97;;;22.40;99.90;;;;;;5040625;28;20279;-59
2022/07/10 09:52:54;;;;;;;7.73;1.97;;;22.60;99.90;;;;;;5036706;28;20312;-61
2022/07/10 09:55:24;;;;;;;7.10;2.00;;;22.30;99.90;;;;;;5044361;28;20231;-61
2022/07/10 09:57:59;;;;;;;7.13;1.67;;;21.90;99.90;;;;;;5043187;28;20227;-61
2022/07/10 10:00:29;;;;;;;11.83;2.03;;;21.40;99.90;;;;;;5043539;28;20574;-60
2022/07/10 10:02:59;;;;;;;8.47;2.20;;;21.20;99.90;;;;;;5041378;28;20227;-60
2022/07/10 10:05:36;;;;;;;7.87;1.67;;;20.80;99.90;;;;;;5043559;28;20938;-60
2022/07/10 10:08:12;;;;;;;6.53;1.97;;;20.70;99.90;;;;;;5043006;28;20227;-60
2022/07/10 10:10:45;;;;;;;7.47;1.83;;;20.70;99.90;;;;;;5043227;28;20241;-61
2022/07/10 10:13:18;;;;;;;9.37;1.60;;;20.80;99.90;;;;;;5041235;28;20250;-60
2022/07/10 10:15:48;;;;;;;6.63;1.60;;;20.50;99.90;;;;;;5048744;28;20235;-60
2022/07/10 10:18:19;;;;;;;10.80;2.00;;;20.50;99.90;;;;;;5047580;28;20753;-60
2022/07/10 10:20:48;;;;;;;6.97;1.83;;;20.40;99.90;;;;;;5054590;28;20286;-60
2022/07/10 10:23:20;;;;;;;11.70;1.97;;;20.30;99.90;;;;;;5055487;28;20232;-59
2022/07/10 10:25:49;;;;;;;8.77;1.83;;;20.50;99.90;;;;;;5051943;28;20242;-59
2022/07/10 10:28:23;;;;;;;9.87;1.90;;;21.10;99.90;;;;;;5060105;28;20227;-60
2022/07/10 10:30:54;;;;;;;7.50;1.77;;;21.40;99.90;;;;;;5055094;28;20586;-60
2022/07/10 10:33:45;;;;;;;7.13;1.90;;;21.50;99.90;;;;;;5055977;28;20228;-60
2022/07/10 10:36:17;;;;;;;8.23;1.83;;;21.10;99.90;;;;;;5054447;28;20231;-60
2022/07/10 10:39:02;;;;;;;5.50;1.57;;;21.00;99.90;;;;;;5054053;28;20238;-60
2022/07/10 10:41:37;;;;;;;9.90;2.03;;;21.70;99.90;;;;;;5056866;28;20238;-60
2022/07/10 10:44:23;;;;;;;8.30;2.60;;;22.40;99.90;;;;;;5055607;28;20319;-60
2022/07/10 10:47:24;;;;;;;11.20;2.40;;;23.20;99.90;;;;;;5054013;28;20252;-59
2022/07/10 10:49:56;;;;;;;8.70;2.07;;;24.00;99.90;;;;;;5055333;28;20224;-60
2022/07/10 10:52:25;;;;;;;7.10;1.73;;;24.70;99.90;;;;;;5055470;28;20232;-59
2022/07/10 10:55:14;;;;;;;5.97;2.00;;;24.50;99.90;;;;;;5055116;28;20619;-60
2022/07/10 10:57:50;;;;;;;5.27;1.73;;;24.70;99.90;;;;;;5054572;28;20282;-60
2022/07/10 11:00:37;;;;;;;7.50;1.90;;;24.40;99.90;;;;;;5057313;28;20232;-59
2022/07/10 11:03:15;;;;;;;6.90;1.63;;;23.60;99.90;;;;;;5055312;28;20729;-60
2022/07/10 11:05:44;;;;;;;8.80;1.63;;;23.10;99.90;;;;;;5055013;28;20232;-60
2022/07/10 11:08:13;;;;;;;5.97;1.50;;;23.60;99.90;;;;;;5053714;28;20224;-60
2022/07/10 11:10:43;;;;;;;6.03;1.40;;;24.00;99.90;;;;;;5054599;28;20250;-59
2022/07/10 11:13:18;;;;;;;4.33;1.70;;;23.70;99.90;;;;;;5056761;28;20220;-59
2022/07/10 11:15:51;;;;;;;6.53;1.50;;;23.60;99.90;;;;;;5054903;28;20232;-59
2022/07/10 11:18:22;;;;;;;4.53;1.37;;;23.20;99.90;;;;;;5054469;28;20314;-60
2022/07/10 11:20:53;;;;;;;5.87;1.80;;;23.30;99.90;;;;;;5053905;28;20281;-59
2022/07/10 11:23:52;;;;;;;5.47;1.63;;;23.60;99.90;;;;;;5054429;28;20235;-59
2022/07/10 11:26:26;;;;;;;4.83;1.40;;;23.60;99.90;;;;;;5034790;28;20565;-59
2022/07/10 11:28:55;;;;;;;5.80;1.57;;;23.50;99.90;;;;;;5054328;28;20625;-59
2022/07/10 11:31:26;;;;;;;11.60;2.80;;;23.10;99.90;;;;;;5054042;28;20232;-60
2022/07/10 11:33:56;;;;;;;6.77;1.63;;;23.00;99.90;;;;;;5054427;28;20259;-60
2022/07/10 11:36:28;;;;;;;5.20;1.60;;;22.40;99.90;;;;;;5054685;28;20315;-60
2022/07/10 11:38:59;;;;;;;6.73;1.70;;;22.00;99.90;;;;;;5054251;28;20320;-59
2022/07/10 11:41:27;;;;;;;5.90;1.60;;;21.50;99.90;;;;;;5055610;28;20259;-59
2022/07/10 11:43:58;;;;;;;5.70;1.57;;;21.00;99.90;;;;;;5054501;28;20742;-59
2022/07/10 11:46:29;;;;;;;5.83;1.93;;;21.20;99.90;;;;;;5054114;28;20251;-60
2022/07/10 11:48:58;;;;;;;5.17;2.00;;;21.40;99.90;;;;;;5055115;28;20622;-60
2022/07/10 11:51:28;;;;;;;8.87;2.20;;;20.90;99.90;;;;;;5053685;28;20235;-60
2022/07/10 11:53:59;;;;;;;8.83;2.00;;;20.50;99.90;;;;;;5054087;28;20639;-59
2022/07/10 11:56:28;;;;;;;6.37;1.50;;;20.80;99.90;;;;;;5054192;28;20232;-59
2022/07/10 11:58:58;;;;;;;6.70;1.73;;;21.40;99.90;;;;;;5053198;28;20228;-60
2022/07/10 12:01:29;;;;;;;6.80;1.90;;;22.20;99.90;;;;;;5053192;28;20286;-60
2022/07/10 12:03:59;;;;;;;7.67;1.70;;;22.00;99.90;;;;;;5053664;28;20236;-60
2022/07/10 12:06:28;;;;;;;6.30;1.40;;;21.50;99.90;;;;;;5053841;28;20232;-60
2022/07/10 12:08:56;;;;;;;7.17;1.80;;;21.20;99.90;;;;;;5054127;28;20707;-59
2022/07/10 12:11:24;;;;;;;7.57;1.80;;;21.40;99.90;;;;;;5055170;28;20273;-60
2022/07/10 12:13:54;;;;;;;6.50;1.90;;;21.50;99.90;;;;;;5053437;28;20213;-60
2022/07/10 12:16:23;;;;;;;8.00;1.80;;;21.00;99.90;;;;;;5054225;28;20278;-59
2022/07/10 12:18:53;;;;;;;7.07;2.13;;;20.60;99.90;;;;;;5054547;28;20232;-60
2022/07/10 12:21:22;;;;;;;7.27;1.80;;;20.50;99.90;;;;;;5053440;28;20243;-60
2022/07/10 12:23:50;;;;;;;6.43;2.07;;;20.60;99.90;;;;;;5053648;28;20247;-59
2022/07/10 12:26:18;;;;;;;7.77;1.70;;;20.60;99.90;;;;;;5051867;28;20219;-59
2022/07/10 12:28:54;;;;;;;8.43;1.90;;;20.70;99.90;;;;;;5050439;28;20231;-60
2022/07/10 12:31:28;;;;;;;7.03;1.70;;;21.00;99.90;;;;;;5052446;28;20701;-59
2022/07/10 12:34:01;;;;;;;5.40;1.60;;;21.10;99.90;;;;;;5045735;28;20281;-60
2022/07/10 12:36:44;;;;;;;6.33;1.57;;;21.20;99.90;;;;;;5042741;28;20326;-60
2022/07/10 12:39:13;;;;;;;7.27;2.00;;;21.20;99.90;;;;;;5044166;28;20239;-60
2022/07/10 12:41:59;;;;;;;7.63;1.93;;;21.30;99.90;;;;;;5045359;28;20242;-59
2022/07/10 12:44:35;;;;;;;8.00;1.77;;;21.20;99.90;;;;;;5041990;28;20250;-60
2022/07/10 12:47:06;;;;;;;7.07;1.73;;;21.00;99.90;;;;;;5042327;28;20812;-61
2022/07/10 12:49:54;;;;;;;7.13;1.67;;;20.80;99.90;;;;;;5042996;28;20237;-60
2022/07/10 12:52:24;;;;;;;7.97;1.80;;;21.00;99.90;;;;;;5043217;28;20230;-60
2022/07/10 12:55:10;;;;;;;4.17;1.37;;;21.30;99.90;;;;;;5043063;28;20231;-59
2022/07/10 12:57:51;;;;;;;7.13;1.50;;;21.60;99.90;;;;;;5041233;28;20223;-59
2022/07/10 13:00:21;;;;;;;6.67;1.63;;;21.60;99.90;;;;;;5043714;28;20227;-60
2022/07/10 13:02:57;;;;;;;7.63;1.90;;;21.70;99.90;;;;;;5042918;28;20239;-59
2022/07/10 13:05:29;;;;;;;7.97;1.53;;;21.80;99.90;;;;;;5043084;28;20975;-59
2022/07/10 13:08:14;;;;;;;7.63;1.90;;;21.60;99.90;;;;;;5042632;28;20343;-60